sensor_id;sensor_type;location;lat;lon;timestamp;P1;durP1;ratioP1;P2;durP2;ratioP2
45909;SDS011;31622;55.416;37.840;2022-07-29T00:01:36;3.03;;;0.57;;
45909;SDS011;31622;55.416;37.840;2022-07-29T00:04:02;1.27;;;0.45;;
45909;SDS011;31622;55.416;37.840;2022-07-29T00:06:27;6.85;;;1.25;;
45909;SDS011;31622;55.416;37.840;2022-07-29T00:08:53;6.80;;;1.00;;
45909;SDS011;31622;55.416;37.840;2022-07-29T00:11:18;3.88;;;0.65;;
45909;SDS011;31622;55.416;37.840;2022-07-29T00:13:44;2.97;;;0.77;;
45909;SDS011;31622;55.416;37.840;2022-07-29T00:16:09;1.88;;;0.73;;
45909;SDS011;31622;55.416;37.840;2022-07-29T00:18:35;3.95;;;0.93;;
45909;SDS011;31622;55.416;37.840;2022-07-29T00:21:01;1.73;;;0.60;;
45909;SDS011;31622;55.416;37.840;2022-07-29T00:23:26;1.38;;;0.60;;
45909;SDS011;31622;55.416;37.840;2022-07-29T00:25:52;1.30;;;0.50;;
45909;SDS011;31622;55.416;37.840;2022-07-29T00:28:18;1.98;;;0.60;;
45909;SDS011;31622;55.416;37.840;2022-07-29T00:30:43;1.58;;;0.70;;
45909;SDS011;31622;55.416;37.840;2022-07-29T00:33:09;1.08;;;0.60;;
45909;SDS011;31622;55.416;37.840;2022-07-29T00:35:35;1.60;;;0.68;;
45909;SDS011;31622;55.416;37.840;2022-07-29T00:38:13;3.45;;;1.30;;
45909;SDS011;31622;55.416;37.840;2022-07-29T00:40:39;4.35;;;0.68;;
45909;SDS011;31622;55.416;37.840;2022-07-29T00:43:06;4.65;;;0.60;;
45909;SDS011;31622;55.416;37.840;2022-07-29T00:45:32;3.22;;;0.70;;
45909;SDS011;31622;55.416;37.840;2022-07-29T00:47:58;2.08;;;0.65;;
45909;SDS011;31622;55.416;37.840;2022-07-29T00:50:24;1.90;;;0.70;;
45909;SDS011;31622;55.416;37.840;2022-07-29T00:52:50;1.58;;;0.60;;
45909;SDS011;31622;55.416;37.840;2022-07-29T00:55:16;3.20;;;0.50;;
45909;SDS011;31622;55.416;37.840;2022-07-29T00:57:42;1.42;;;0.63;;
45909;SDS011;31622;55.416;37.840;2022-07-29T01:00:10;3.25;;;0.50;;
45909;SDS011;31622;55.416;37.840;2022-07-29T01:02:40;3.00;;;0.82;;
45909;SDS011;31622;55.416;37.840;2022-07-29T01:05:05;1.10;;;0.50;;
45909;SDS011;31622;55.416;37.840;2022-07-29T01:07:32;2.95;;;0.88;;
45909;SDS011;31622;55.416;37.840;2022-07-29T01:09:59;1.08;;;0.73;;
45909;SDS011;31622;55.416;37.840;2022-07-29T01:12:26;1.27;;;0.60;;
45909;SDS011;31622;55.416;37.840;2022-07-29T01:14:54;1.65;;;0.93;;
45909;SDS011;31622;55.416;37.840;2022-07-29T01:17:24;1.05;;;0.50;;
45909;SDS011;31622;55.416;37.840;2022-07-29T01:30:45;4.63;;;0.57;;
45909;SDS011;31622;55.416;37.840;2022-07-29T01:33:12;1.13;;;0.60;;
45909;SDS011;31622;55.416;37.840;2022-07-29T01:36:06;5.45;;;0.73;;
45909;SDS011;31622;55.416;37.840;2022-07-29T01:38:39;1.92;;;0.70;;
45909;SDS011;31622;55.416;37.840;2022-07-29T01:41:08;1.38;;;0.88;;
45909;SDS011;31622;55.416;37.840;2022-07-29T01:43:41;1.77;;;0.60;;
45909;SDS011;31622;55.416;37.840;2022-07-29T01:46:27;1.30;;;0.60;;
45909;SDS011;31622;55.416;37.840;2022-07-29T01:49:00;2.55;;;0.60;;
45909;SDS011;31622;55.416;37.840;2022-07-29T01:51:36;2.95;;;0.70;;
45909;SDS011;31622;55.416;37.840;2022-07-29T01:54:10;2.90;;;0.85;;
45909;SDS011;31622;55.416;37.840;2022-07-29T01:56:38;4.43;;;1.52;;
45909;SDS011;31622;55.416;37.840;2022-07-29T01:59:05;1.60;;;0.70;;
45909;SDS011;31622;55.416;37.840;2022-07-29T02:01:32;3.42;;;0.98;;
45909;SDS011;31622;55.416;37.840;2022-07-29T02:03:58;2.30;;;0.70;;
45909;SDS011;31622;55.416;37.840;2022-07-29T02:06:24;4.97;;;0.88;;
45909;SDS011;31622;55.416;37.840;2022-07-29T02:08:51;2.60;;;0.70;;
45909;SDS011;31622;55.416;37.840;2022-07-29T02:11:18;2.55;;;1.10;;
45909;SDS011;31622;55.416;37.840;2022-07-29T02:13:43;1.38;;;0.80;;
45909;SDS011;31622;55.416;37.840;2022-07-29T02:16:09;1.65;;;0.70;;
45909;SDS011;31622;55.416;37.840;2022-07-29T02:18:36;4.22;;;0.68;;
45909;SDS011;31622;55.416;37.840;2022-07-29T02:21:02;3.92;;;0.80;;
45909;SDS011;31622;55.416;37.840;2022-07-29T02:23:28;2.47;;;0.60;;
45909;SDS011;31622;55.416;37.840;2022-07-29T02:25:56;1.48;;;0.60;;
45909;SDS011;31622;55.416;37.840;2022-07-29T02:28:24;1.90;;;0.80;;
45909;SDS011;31622;55.416;37.840;2022-07-29T02:30:52;2.05;;;0.88;;
45909;SDS011;31622;55.416;37.840;2022-07-29T02:33:19;3.47;;;1.13;;
45909;SDS011;31622;55.416;37.840;2022-07-29T02:35:46;2.05;;;0.63;;
45909;SDS011;31622;55.416;37.840;2022-07-29T02:38:13;2.95;;;0.70;;
45909;SDS011;31622;55.416;37.840;2022-07-29T02:41:00;1.88;;;0.70;;
45909;SDS011;31622;55.416;37.840;2022-07-29T02:43:29;3.58;;;0.80;;
45909;SDS011;31622;55.416;37.840;2022-07-29T02:45:56;3.03;;;0.77;;
45909;SDS011;31622;55.416;37.840;2022-07-29T02:48:22;2.58;;;0.90;;
45909;SDS011;31622;55.416;37.840;2022-07-29T02:50:54;3.13;;;0.80;;
45909;SDS011;31622;55.416;37.840;2022-07-29T02:53:27;1.48;;;0.70;;
45909;SDS011;31622;55.416;37.840;2022-07-29T02:58:30;2.28;;;0.60;;
45909;SDS011;31622;55.416;37.840;2022-07-29T03:01:08;1.90;;;0.80;;
45909;SDS011;31622;55.416;37.840;2022-07-29T03:03:37;4.93;;;0.98;;
45909;SDS011;31622;55.416;37.840;2022-07-29T03:06:04;2.75;;;0.70;;
45909;SDS011;31622;55.416;37.840;2022-07-29T03:08:33;2.53;;;0.90;;
45909;SDS011;31622;55.416;37.840;2022-07-29T03:10:59;4.03;;;0.82;;
45909;SDS011;31622;55.416;37.840;2022-07-29T03:13:26;1.73;;;0.70;;
45909;SDS011;31622;55.416;37.840;2022-07-29T03:15:52;5.65;;;1.27;;
45909;SDS011;31622;55.416;37.840;2022-07-29T03:18:19;2.58;;;1.10;;
45909;SDS011;31622;55.416;37.840;2022-07-29T03:20:44;4.05;;;0.90;;
45909;SDS011;31622;55.416;37.840;2022-07-29T03:23:10;5.72;;;0.90;;
45909;SDS011;31622;55.416;37.840;2022-07-29T03:25:36;2.47;;;0.93;;
45909;SDS011;31622;55.416;37.840;2022-07-29T03:28:01;3.15;;;0.95;;
45909;SDS011;31622;55.416;37.840;2022-07-29T03:30:27;1.42;;;0.73;;
45909;SDS011;31622;55.416;37.840;2022-07-29T03:32:55;2.42;;;0.77;;
45909;SDS011;31622;55.416;37.840;2022-07-29T03:35:22;2.13;;;0.90;;
45909;SDS011;31622;55.416;37.840;2022-07-29T03:37:48;3.00;;;1.10;;
45909;SDS011;31622;55.416;37.840;2022-07-29T03:40:16;2.72;;;0.80;;
45909;SDS011;31622;55.416;37.840;2022-07-29T03:42:45;2.03;;;1.00;;
45909;SDS011;31622;55.416;37.840;2022-07-29T03:45:12;4.13;;;1.00;;
45909;SDS011;31622;55.416;37.840;2022-07-29T03:47:43;3.30;;;0.90;;
45909;SDS011;31622;55.416;37.840;2022-07-29T03:50:11;2.55;;;1.10;;
45909;SDS011;31622;55.416;37.840;2022-07-29T03:52:38;2.25;;;0.85;;
45909;SDS011;31622;55.416;37.840;2022-07-29T03:55:04;2.97;;;1.30;;
45909;SDS011;31622;55.416;37.840;2022-07-29T03:57:30;5.30;;;1.45;;
45909;SDS011;31622;55.416;37.840;2022-07-29T03:59:56;2.85;;;1.13;;
45909;SDS011;31622;55.416;37.840;2022-07-29T04:02:22;5.05;;;1.35;;
45909;SDS011;31622;55.416;37.840;2022-07-29T04:04:48;6.90;;;1.13;;
45909;SDS011;31622;55.416;37.840;2022-07-29T04:07:15;3.28;;;1.20;;
45909;SDS011;31622;55.416;37.840;2022-07-29T04:09:40;4.15;;;1.17;;
45909;SDS011;31622;55.416;37.840;2022-07-29T04:12:06;6.45;;;1.35;;
45909;SDS011;31622;55.416;37.840;2022-07-29T04:14:33;7.50;;;1.60;;
45909;SDS011;31622;55.416;37.840;2022-07-29T04:16:59;3.10;;;1.08;;
45909;SDS011;31622;55.416;37.840;2022-07-29T04:19:26;5.15;;;1.20;;
45909;SDS011;31622;55.416;37.840;2022-07-29T04:21:51;6.97;;;1.38;;
45909;SDS011;31622;55.416;37.840;2022-07-29T04:24:17;6.28;;;1.20;;
45909;SDS011;31622;55.416;37.840;2022-07-29T04:26:42;2.00;;;0.93;;
45909;SDS011;31622;55.416;37.840;2022-07-29T04:29:08;4.43;;;1.30;;
45909;SDS011;31622;55.416;37.840;2022-07-29T04:31:34;4.10;;;1.17;;
45909;SDS011;31622;55.416;37.840;2022-07-29T04:33:59;5.45;;;1.30;;
45909;SDS011;31622;55.416;37.840;2022-07-29T04:36:25;2.28;;;1.10;;
45909;SDS011;31622;55.416;37.840;2022-07-29T04:38:51;4.65;;;1.33;;
45909;SDS011;31622;55.416;37.840;2022-07-29T04:41:16;3.65;;;1.00;;
45909;SDS011;31622;55.416;37.840;2022-07-29T04:43:42;3.72;;;1.10;;
45909;SDS011;31622;55.416;37.840;2022-07-29T04:46:07;3.35;;;1.75;;
45909;SDS011;31622;55.416;37.840;2022-07-29T04:48:33;3.50;;;1.23;;
45909;SDS011;31622;55.416;37.840;2022-07-29T04:50:59;3.85;;;1.20;;
45909;SDS011;31622;55.416;37.840;2022-07-29T04:53:24;3.53;;;1.30;;
45909;SDS011;31622;55.416;37.840;2022-07-29T04:55:50;7.03;;;1.98;;
45909;SDS011;31622;55.416;37.840;2022-07-29T04:58:16;6.03;;;2.63;;
45909;SDS011;31622;55.416;37.840;2022-07-29T05:00:42;12.02;;;4.93;;
45909;SDS011;31622;55.416;37.840;2022-07-29T05:03:07;5.47;;;2.90;;
45909;SDS011;31622;55.416;37.840;2022-07-29T05:05:33;6.38;;;3.30;;
45909;SDS011;31622;55.416;37.840;2022-07-29T05:07:59;6.45;;;2.47;;
45909;SDS011;31622;55.416;37.840;2022-07-29T05:10:24;4.13;;;1.65;;
45909;SDS011;31622;55.416;37.840;2022-07-29T05:12:50;5.78;;;1.55;;
45909;SDS011;31622;55.416;37.840;2022-07-29T05:15:16;5.00;;;1.55;;
45909;SDS011;31622;55.416;37.840;2022-07-29T05:17:42;5.05;;;1.60;;
45909;SDS011;31622;55.416;37.840;2022-07-29T05:20:09;3.83;;;1.58;;
45909;SDS011;31622;55.416;37.840;2022-07-29T05:22:34;5.65;;;2.10;;
45909;SDS011;31622;55.416;37.840;2022-07-29T05:25:00;4.80;;;2.10;;
45909;SDS011;31622;55.416;37.840;2022-07-29T05:27:26;4.70;;;1.92;;
45909;SDS011;31622;55.416;37.840;2022-07-29T05:29:51;5.75;;;2.28;;
45909;SDS011;31622;55.416;37.840;2022-07-29T05:32:17;4.00;;;2.10;;
45909;SDS011;31622;55.416;37.840;2022-07-29T05:34:42;4.00;;;2.50;;
45909;SDS011;31622;55.416;37.840;2022-07-29T05:37:08;4.55;;;2.67;;
45909;SDS011;31622;55.416;37.840;2022-07-29T05:39:34;3.63;;;1.55;;
45909;SDS011;31622;55.416;37.840;2022-07-29T05:41:59;5.82;;;1.80;;
45909;SDS011;31622;55.416;37.840;2022-07-29T05:44:25;2.85;;;1.40;;
45909;SDS011;31622;55.416;37.840;2022-07-29T05:46:51;5.70;;;1.73;;
45909;SDS011;31622;55.416;37.840;2022-07-29T05:49:16;4.65;;;1.50;;
45909;SDS011;31622;55.416;37.840;2022-07-29T05:51:43;5.38;;;1.58;;
45909;SDS011;31622;55.416;37.840;2022-07-29T05:54:08;3.10;;;1.33;;
45909;SDS011;31622;55.416;37.840;2022-07-29T05:56:35;4.30;;;1.50;;
45909;SDS011;31622;55.416;37.840;2022-07-29T05:59:01;5.28;;;1.45;;
45909;SDS011;31622;55.416;37.840;2022-07-29T06:01:26;4.18;;;1.40;;
45909;SDS011;31622;55.416;37.840;2022-07-29T06:03:52;3.05;;;1.33;;
45909;SDS011;31622;55.416;37.840;2022-07-29T06:06:18;2.58;;;1.15;;
45909;SDS011;31622;55.416;37.840;2022-07-29T06:08:43;4.30;;;1.30;;
45909;SDS011;31622;55.416;37.840;2022-07-29T06:11:09;3.10;;;1.08;;
45909;SDS011;31622;55.416;37.840;2022-07-29T06:13:35;3.10;;;1.15;;
45909;SDS011;31622;55.416;37.840;2022-07-29T06:16:00;2.67;;;1.58;;
45909;SDS011;31622;55.416;37.840;2022-07-29T06:18:26;2.10;;;0.90;;
45909;SDS011;31622;55.416;37.840;2022-07-29T06:20:52;2.17;;;0.93;;
45909;SDS011;31622;55.416;37.840;2022-07-29T06:23:18;4.32;;;1.15;;
45909;SDS011;31622;55.416;37.840;2022-07-29T06:25:45;2.60;;;1.00;;
45909;SDS011;31622;55.416;37.840;2022-07-29T06:28:11;4.22;;;0.90;;
45909;SDS011;31622;55.416;37.840;2022-07-29T06:30:38;1.73;;;0.93;;
45909;SDS011;31622;55.416;37.840;2022-07-29T06:33:04;6.95;;;1.40;;
45909;SDS011;31622;55.416;37.840;2022-07-29T06:35:30;21.85;;;2.92;;
45909;SDS011;31622;55.416;37.840;2022-07-29T06:37:57;11.55;;;1.67;;
45909;SDS011;31622;55.416;37.840;2022-07-29T06:40:23;11.10;;;1.50;;
45909;SDS011;31622;55.416;37.840;2022-07-29T06:43:07;4.50;;;1.30;;
45909;SDS011;31622;55.416;37.840;2022-07-29T06:45:34;6.05;;;1.20;;
45909;SDS011;31622;55.416;37.840;2022-07-29T06:47:59;5.80;;;1.20;;
45909;SDS011;31622;55.416;37.840;2022-07-29T06:50:25;3.30;;;1.23;;
45909;SDS011;31622;55.416;37.840;2022-07-29T06:52:51;4.38;;;1.58;;
45909;SDS011;31622;55.416;37.840;2022-07-29T06:55:17;2.67;;;1.13;;
45909;SDS011;31622;55.416;37.840;2022-07-29T06:57:44;5.95;;;1.67;;
45909;SDS011;31622;55.416;37.840;2022-07-29T07:00:11;7.03;;;1.40;;
45909;SDS011;31622;55.416;37.840;2022-07-29T07:02:38;4.05;;;1.10;;
45909;SDS011;31622;55.416;37.840;2022-07-29T07:05:03;5.28;;;1.02;;
45909;SDS011;31622;55.416;37.840;2022-07-29T07:07:30;2.22;;;1.10;;
45909;SDS011;31622;55.416;37.840;2022-07-29T07:09:56;3.75;;;1.20;;
45909;SDS011;31622;55.416;37.840;2022-07-29T07:12:22;2.80;;;0.90;;
45909;SDS011;31622;55.416;37.840;2022-07-29T07:14:48;3.92;;;1.38;;
45909;SDS011;31622;55.416;37.840;2022-07-29T07:17:13;2.90;;;1.00;;
45909;SDS011;31622;55.416;37.840;2022-07-29T07:19:39;4.65;;;1.48;;
45909;SDS011;31622;55.416;37.840;2022-07-29T07:22:05;3.17;;;1.27;;
45909;SDS011;31622;55.416;37.840;2022-07-29T07:24:30;1.75;;;0.90;;
45909;SDS011;31622;55.416;37.840;2022-07-29T07:26:56;2.92;;;1.13;;
45909;SDS011;31622;55.416;37.840;2022-07-29T07:29:22;3.45;;;1.00;;
45909;SDS011;31622;55.416;37.840;2022-07-29T07:31:48;2.50;;;1.00;;
45909;SDS011;31622;55.416;37.840;2022-07-29T07:34:13;3.70;;;1.50;;
45909;SDS011;31622;55.416;37.840;2022-07-29T07:36:39;5.75;;;2.22;;
45909;SDS011;31622;55.416;37.840;2022-07-29T07:39:05;6.45;;;2.20;;
45909;SDS011;31622;55.416;37.840;2022-07-29T07:41:30;4.43;;;1.80;;
45909;SDS011;31622;55.416;37.840;2022-07-29T07:43:56;4.25;;;1.70;;
45909;SDS011;31622;55.416;37.840;2022-07-29T07:46:22;5.25;;;2.03;;
45909;SDS011;31622;55.416;37.840;2022-07-29T07:48:47;5.72;;;2.22;;
45909;SDS011;31622;55.416;37.840;2022-07-29T07:51:13;4.53;;;1.65;;
45909;SDS011;31622;55.416;37.840;2022-07-29T07:53:39;2.85;;;1.40;;
45909;SDS011;31622;55.416;37.840;2022-07-29T07:56:05;3.17;;;1.50;;
45909;SDS011;31622;55.416;37.840;2022-07-29T07:58:31;5.75;;;1.70;;
45909;SDS011;31622;55.416;37.840;2022-07-29T08:00:57;1.95;;;0.93;;
45909;SDS011;31622;55.416;37.840;2022-07-29T08:03:23;4.05;;;1.30;;
45909;SDS011;31622;55.416;37.840;2022-07-29T08:05:48;4.57;;;1.08;;
45909;SDS011;31622;55.416;37.840;2022-07-29T08:08:16;2.88;;;0.93;;
45909;SDS011;31622;55.416;37.840;2022-07-29T08:10:42;3.00;;;1.30;;
45909;SDS011;31622;55.416;37.840;2022-07-29T08:13:17;2.40;;;1.08;;
45909;SDS011;31622;55.416;37.840;2022-07-29T08:15:44;1.90;;;0.77;;
45909;SDS011;31622;55.416;37.840;2022-07-29T08:18:11;3.75;;;1.08;;
45909;SDS011;31622;55.416;37.840;2022-07-29T08:20:38;3.65;;;0.90;;
45909;SDS011;31622;55.416;37.840;2022-07-29T08:23:06;3.92;;;0.90;;
45909;SDS011;31622;55.416;37.840;2022-07-29T08:25:35;3.20;;;0.77;;
45909;SDS011;31622;55.416;37.840;2022-07-29T08:28:01;5.00;;;0.90;;
45909;SDS011;31622;55.416;37.840;2022-07-29T08:30:27;2.33;;;0.75;;
45909;SDS011;31622;55.416;37.840;2022-07-29T08:32:53;1.65;;;0.70;;
45909;SDS011;31622;55.416;37.840;2022-07-29T08:35:19;2.70;;;0.93;;
45909;SDS011;31622;55.416;37.840;2022-07-29T08:37:45;1.80;;;1.00;;
45909;SDS011;31622;55.416;37.840;2022-07-29T08:40:11;1.95;;;0.93;;
45909;SDS011;31622;55.416;37.840;2022-07-29T08:42:37;3.92;;;1.20;;
45909;SDS011;31622;55.416;37.840;2022-07-29T08:45:03;3.90;;;1.30;;
45909;SDS011;31622;55.416;37.840;2022-07-29T08:47:30;2.00;;;1.10;;
45909;SDS011;31622;55.416;37.840;2022-07-29T08:49:55;2.55;;;1.02;;
45909;SDS011;31622;55.416;37.840;2022-07-29T08:52:21;2.95;;;0.93;;
45909;SDS011;31622;55.416;37.840;2022-07-29T08:54:49;1.25;;;0.80;;
45909;SDS011;31622;55.416;37.840;2022-07-29T08:57:15;1.65;;;0.80;;
45909;SDS011;31622;55.416;37.840;2022-07-29T08:59:42;1.42;;;0.93;;
45909;SDS011;31622;55.416;37.840;2022-07-29T09:02:12;2.95;;;1.50;;
45909;SDS011;31622;55.416;37.840;2022-07-29T09:04:46;2.13;;;1.20;;
45909;SDS011;31622;55.416;37.840;2022-07-29T09:07:16;2.95;;;1.20;;
45909;SDS011;31622;55.416;37.840;2022-07-29T09:09:43;2.33;;;1.08;;
45909;SDS011;31622;55.416;37.840;2022-07-29T09:12:09;2.38;;;1.05;;
45909;SDS011;31622;55.416;37.840;2022-07-29T09:14:39;3.65;;;1.55;;
45909;SDS011;31622;55.416;37.840;2022-07-29T09:17:05;2.75;;;1.58;;
45909;SDS011;31622;55.416;37.840;2022-07-29T09:19:35;4.05;;;1.55;;
45909;SDS011;31622;55.416;37.840;2022-07-29T09:22:03;4.18;;;1.20;;
45909;SDS011;31622;55.416;37.840;2022-07-29T09:26:59;1.75;;;0.73;;
45909;SDS011;31622;55.416;37.840;2022-07-29T09:29:25;2.78;;;1.08;;
45909;SDS011;31622;55.416;37.840;2022-07-29T09:31:54;2.17;;;0.95;;
45909;SDS011;31622;55.416;37.840;2022-07-29T09:36:54;2.88;;;1.20;;
45909;SDS011;31622;55.416;37.840;2022-07-29T09:39:33;2.05;;;1.10;;
45909;SDS011;31622;55.416;37.840;2022-07-29T09:42:05;3.17;;;1.10;;
45909;SDS011;31622;55.416;37.840;2022-07-29T09:44:41;3.67;;;1.00;;
45909;SDS011;31622;55.416;37.840;2022-07-29T09:47:13;4.93;;;1.92;;
45909;SDS011;31622;55.416;37.840;2022-07-29T09:49:53;3.70;;;0.90;;
45909;SDS011;31622;55.416;37.840;2022-07-29T09:52:20;4.00;;;0.60;;
45909;SDS011;31622;55.416;37.840;2022-07-29T09:54:46;1.40;;;0.60;;
45909;SDS011;31622;55.416;37.840;2022-07-29T09:57:32;1.10;;;0.60;;
45909;SDS011;31622;55.416;37.840;2022-07-29T10:00:03;1.88;;;0.70;;
45909;SDS011;31622;55.416;37.840;2022-07-29T10:02:40;6.10;;;0.88;;
45909;SDS011;31622;55.416;37.840;2022-07-29T10:05:21;1.83;;;0.70;;
45909;SDS011;31622;55.416;37.840;2022-07-29T10:07:57;2.70;;;0.90;;
45909;SDS011;31622;55.416;37.840;2022-07-29T10:10:24;1.60;;;0.60;;
45909;SDS011;31622;55.416;37.840;2022-07-29T10:12:58;1.17;;;0.70;;
45909;SDS011;31622;55.416;37.840;2022-07-29T10:15:26;1.50;;;0.73;;
45909;SDS011;31622;55.416;37.840;2022-07-29T10:17:54;6.40;;;1.13;;
45909;SDS011;31622;55.416;37.840;2022-07-29T10:20:21;2.92;;;1.05;;
45909;SDS011;31622;55.416;37.840;2022-07-29T10:22:48;5.35;;;0.98;;
45909;SDS011;31622;55.416;37.840;2022-07-29T10:25:15;3.60;;;0.95;;
45909;SDS011;31622;55.416;37.840;2022-07-29T10:27:41;3.20;;;0.95;;
45909;SDS011;31622;55.416;37.840;2022-07-29T10:30:08;3.40;;;0.75;;
45909;SDS011;31622;55.416;37.840;2022-07-29T10:32:49;5.10;;;0.80;;
45909;SDS011;31622;55.416;37.840;2022-07-29T10:44:06;3.70;;;1.27;;
45909;SDS011;31622;55.416;37.840;2022-07-29T10:46:35;1.13;;;0.70;;
45909;SDS011;31622;55.416;37.840;2022-07-29T10:49:05;2.65;;;0.80;;
45909;SDS011;31622;55.416;37.840;2022-07-29T11:00:26;1.40;;;0.60;;
45909;SDS011;31622;55.416;37.840;2022-07-29T11:07:35;1.92;;;0.82;;
45909;SDS011;31622;55.416;37.840;2022-07-29T11:15:03;1.83;;;0.80;;
45909;SDS011;31622;55.416;37.840;2022-07-29T11:31:33;2.97;;;1.05;;
45909;SDS011;31622;55.416;37.840;2022-07-29T11:34:17;4.10;;;0.80;;
45909;SDS011;31622;55.416;37.840;2022-07-29T11:39:45;2.22;;;0.55;;
45909;SDS011;31622;55.416;37.840;2022-07-29T11:47:27;1.20;;;0.60;;
45909;SDS011;31622;55.416;37.840;2022-07-29T11:49:54;3.72;;;0.80;;
45909;SDS011;31622;55.416;37.840;2022-07-29T11:52:22;5.03;;;1.10;;
45909;SDS011;31622;55.416;37.840;2022-07-29T11:54:48;2.22;;;0.88;;
45909;SDS011;31622;55.416;37.840;2022-07-29T11:57:19;2.95;;;0.95;;
45909;SDS011;31622;55.416;37.840;2022-07-29T11:59:46;2.72;;;0.80;;
45909;SDS011;31622;55.416;37.840;2022-07-29T12:02:12;2.35;;;1.05;;
45909;SDS011;31622;55.416;37.840;2022-07-29T12:04:48;2.28;;;0.85;;
45909;SDS011;31622;55.416;37.840;2022-07-29T12:07:17;1.77;;;0.95;;
45909;SDS011;31622;55.416;37.840;2022-07-29T12:09:50;2.92;;;0.90;;
45909;SDS011;31622;55.416;37.840;2022-07-29T12:12:17;2.17;;;0.90;;
45909;SDS011;31622;55.416;37.840;2022-07-29T12:14:43;2.08;;;0.80;;
45909;SDS011;31622;55.416;37.840;2022-07-29T12:17:24;1.60;;;1.00;;
45909;SDS011;31622;55.416;37.840;2022-07-29T12:19:51;2.63;;;0.90;;
45909;SDS011;31622;55.416;37.840;2022-07-29T12:22:38;1.30;;;0.80;;
45909;SDS011;31622;55.416;37.840;2022-07-29T12:25:08;2.20;;;1.00;;
45909;SDS011;31622;55.416;37.840;2022-07-29T12:27:37;2.88;;;1.00;;
45909;SDS011;31622;55.416;37.840;2022-07-29T12:30:04;3.38;;;0.75;;
45909;SDS011;31622;55.416;37.840;2022-07-29T12:32:32;1.63;;;0.70;;
45909;SDS011;31622;55.416;37.840;2022-07-29T12:34:58;1.30;;;0.60;;
45909;SDS011;31622;55.416;37.840;2022-07-29T12:37:25;2.25;;;0.65;;
45909;SDS011;31622;55.416;37.840;2022-07-29T12:39:50;2.75;;;0.70;;
45909;SDS011;31622;55.416;37.840;2022-07-29T12:42:16;0.85;;;0.50;;
45909;SDS011;31622;55.416;37.840;2022-07-29T12:44:46;1.02;;;0.50;;
45909;SDS011;31622;55.416;37.840;2022-07-29T12:47:13;1.33;;;0.50;;
45909;SDS011;31622;55.416;37.840;2022-07-29T12:49:39;2.05;;;0.80;;
45909;SDS011;31622;55.416;37.840;2022-07-29T12:55:09;1.77;;;0.63;;
45909;SDS011;31622;55.416;37.840;2022-07-29T12:57:48;1.25;;;0.65;;
45909;SDS011;31622;55.416;37.840;2022-07-29T13:00:15;1.45;;;0.60;;
45909;SDS011;31622;55.416;37.840;2022-07-29T13:02:42;1.58;;;0.90;;
45909;SDS011;31622;55.416;37.840;2022-07-29T13:05:09;1.85;;;0.70;;
45909;SDS011;31622;55.416;37.840;2022-07-29T13:07:36;1.98;;;0.68;;
45909;SDS011;31622;55.416;37.840;2022-07-29T13:10:12;1.77;;;0.80;;
45909;SDS011;31622;55.416;37.840;2022-07-29T13:12:38;2.63;;;0.98;;
45909;SDS011;31622;55.416;37.840;2022-07-29T13:15:14;4.57;;;2.60;;
45909;SDS011;31622;55.416;37.840;2022-07-29T13:17:40;3.50;;;1.70;;
45909;SDS011;31622;55.416;37.840;2022-07-29T13:20:08;5.35;;;1.50;;
45909;SDS011;31622;55.416;37.840;2022-07-29T13:22:37;4.10;;;1.77;;
45909;SDS011;31622;55.416;37.840;2022-07-29T13:25:04;2.33;;;1.13;;
45909;SDS011;31622;55.416;37.840;2022-07-29T13:27:32;3.88;;;1.35;;
45909;SDS011;31622;55.416;37.840;2022-07-29T13:30:00;2.95;;;1.13;;
45909;SDS011;31622;55.416;37.840;2022-07-29T13:32:28;3.55;;;1.30;;
45909;SDS011;31622;55.416;37.840;2022-07-29T13:34:55;2.03;;;1.00;;
45909;SDS011;31622;55.416;37.840;2022-07-29T13:37:22;1.85;;;0.93;;
45909;SDS011;31622;55.416;37.840;2022-07-29T13:39:47;1.85;;;1.20;;
45909;SDS011;31622;55.416;37.840;2022-07-29T13:42:13;2.83;;;1.23;;
45909;SDS011;31622;55.416;37.840;2022-07-29T13:44:39;2.35;;;1.00;;
45909;SDS011;31622;55.416;37.840;2022-07-29T13:47:05;2.03;;;1.00;;
45909;SDS011;31622;55.416;37.840;2022-07-29T13:49:32;4.18;;;0.90;;
45909;SDS011;31622;55.416;37.840;2022-07-29T13:51:58;4.90;;;1.33;;
45909;SDS011;31622;55.416;37.840;2022-07-29T13:54:24;4.03;;;1.15;;
45909;SDS011;31622;55.416;37.840;2022-07-29T13:56:50;1.80;;;1.20;;
45909;SDS011;31622;55.416;37.840;2022-07-29T13:59:16;3.28;;;1.20;;
45909;SDS011;31622;55.416;37.840;2022-07-29T14:01:42;2.60;;;1.48;;
45909;SDS011;31622;55.416;37.840;2022-07-29T14:04:08;2.78;;;1.15;;
45909;SDS011;31622;55.416;37.840;2022-07-29T14:06:34;2.67;;;1.27;;
45909;SDS011;31622;55.416;37.840;2022-07-29T14:09:00;2.95;;;1.35;;
45909;SDS011;31622;55.416;37.840;2022-07-29T14:11:25;3.05;;;0.98;;
45909;SDS011;31622;55.416;37.840;2022-07-29T14:13:51;3.45;;;1.42;;
45909;SDS011;31622;55.416;37.840;2022-07-29T14:16:17;3.30;;;0.93;;
45909;SDS011;31622;55.416;37.840;2022-07-29T14:18:42;2.15;;;0.95;;
45909;SDS011;31622;55.416;37.840;2022-07-29T14:21:08;1.67;;;0.88;;
45909;SDS011;31622;55.416;37.840;2022-07-29T14:23:34;4.63;;;1.45;;
45909;SDS011;31622;55.416;37.840;2022-07-29T14:25:59;2.65;;;1.00;;
45909;SDS011;31622;55.416;37.840;2022-07-29T14:28:25;4.78;;;2.10;;
45909;SDS011;31622;55.416;37.840;2022-07-29T14:30:51;2.30;;;1.50;;
45909;SDS011;31622;55.416;37.840;2022-07-29T14:33:16;2.55;;;1.70;;
45909;SDS011;31622;55.416;37.840;2022-07-29T14:35:42;3.35;;;2.15;;
45909;SDS011;31622;55.416;37.840;2022-07-29T14:38:08;2.67;;;1.63;;
45909;SDS011;31622;55.416;37.840;2022-07-29T14:40:34;3.78;;;1.60;;
45909;SDS011;31622;55.416;37.840;2022-07-29T14:43:00;3.20;;;1.55;;
45909;SDS011;31622;55.416;37.840;2022-07-29T14:45:26;4.00;;;1.90;;
45909;SDS011;31622;55.416;37.840;2022-07-29T14:47:53;6.07;;;1.40;;
45909;SDS011;31622;55.416;37.840;2022-07-29T14:50:19;6.97;;;1.45;;
45909;SDS011;31622;55.416;37.840;2022-07-29T14:52:44;2.38;;;1.50;;
45909;SDS011;31622;55.416;37.840;2022-07-29T14:55:10;4.53;;;1.50;;
45909;SDS011;31622;55.416;37.840;2022-07-29T14:57:36;2.45;;;1.60;;
45909;SDS011;31622;55.416;37.840;2022-07-29T15:00:02;6.50;;;1.95;;
45909;SDS011;31622;55.416;37.840;2022-07-29T15:02:29;3.35;;;1.75;;
45909;SDS011;31622;55.416;37.840;2022-07-29T15:04:55;3.63;;;2.05;;
45909;SDS011;31622;55.416;37.840;2022-07-29T15:07:21;3.40;;;2.45;;
45909;SDS011;31622;55.416;37.840;2022-07-29T15:09:47;4.55;;;2.00;;
45909;SDS011;31622;55.416;37.840;2022-07-29T15:12:12;3.08;;;1.63;;
45909;SDS011;31622;55.416;37.840;2022-07-29T15:14:38;3.55;;;2.03;;
45909;SDS011;31622;55.416;37.840;2022-07-29T15:17:04;2.72;;;1.30;;
45909;SDS011;31622;55.416;37.840;2022-07-29T15:19:30;1.83;;;1.08;;
45909;SDS011;31622;55.416;37.840;2022-07-29T15:21:55;5.93;;;1.40;;
45909;SDS011;31622;55.416;37.840;2022-07-29T15:24:21;4.47;;;1.50;;
45909;SDS011;31622;55.416;37.840;2022-07-29T15:26:46;4.93;;;1.67;;
45909;SDS011;31622;55.416;37.840;2022-07-29T15:29:12;2.55;;;1.27;;
45909;SDS011;31622;55.416;37.840;2022-07-29T15:31:39;2.20;;;1.05;;
45909;SDS011;31622;55.416;37.840;2022-07-29T15:34:04;2.78;;;1.20;;
45909;SDS011;31622;55.416;37.840;2022-07-29T15:36:30;3.03;;;1.35;;
45909;SDS011;31622;55.416;37.840;2022-07-29T15:38:56;4.03;;;1.23;;
45909;SDS011;31622;55.416;37.840;2022-07-29T15:41:22;3.90;;;1.05;;
45909;SDS011;31622;55.416;37.840;2022-07-29T15:43:48;3.92;;;1.23;;
45909;SDS011;31622;55.416;37.840;2022-07-29T15:46:14;1.88;;;1.00;;